sensor_id;sensor_type;location;lat;lon;timestamp;temperature;humidity
64961;SHT31;51487;52.266;10.542;2024-01-30T00:02:21;4.27;90.08
64961;SHT31;51487;52.266;10.542;2024-01-30T00:04:47;4.33;90.10
64961;SHT31;51487;52.266;10.542;2024-01-30T00:07:14;4.40;89.93
64961;SHT31;51487;52.266;10.542;2024-01-30T00:09:39;4.40;89.89
64961;SHT31;51487;52.266;10.542;2024-01-30T00:12:06;4.38;90.01
64961;SHT31;51487;52.266;10.542;2024-01-30T00:14:31;4.40;90.22
64961;SHT31;51487;52.266;10.542;2024-01-30T00:16:57;4.44;90.41
64961;SHT31;51487;52.266;10.542;2024-01-30T00:19:23;4.45;90.29
64961;SHT31;51487;52.266;10.542;2024-01-30T00:21:48;4.45;90.51
64961;SHT31;51487;52.266;10.542;2024-01-30T00:24:14;4.45;90.43
64961;SHT31;51487;52.266;10.542;2024-01-30T00:26:40;4.54;90.54
64961;SHT31;51487;52.266;10.542;2024-01-30T00:29:05;4.65;90.25
64961;SHT31;51487;52.266;10.542;2024-01-30T00:31:31;4.65;89.66
64961;SHT31;51487;52.266;10.542;2024-01-30T00:33:59;4.60;89.47
64961;SHT31;51487;52.266;10.542;2024-01-30T00:36:25;4.54;89.63
64961;SHT31;51487;52.266;10.542;2024-01-30T00:38:50;4.42;90.40
64961;SHT31;51487;52.266;10.542;2024-01-30T00:41:18;4.40;90.47
64961;SHT31;51487;52.266;10.542;2024-01-30T00:43:44;4.40;90.44
64961;SHT31;51487;52.266;10.542;2024-01-30T00:46:10;4.40;90.56
64961;SHT31;51487;52.266;10.542;2024-01-30T00:48:35;4.45;90.60
64961;SHT31;51487;52.266;10.542;2024-01-30T00:51:01;4.54;91.28
64961;SHT31;51487;52.266;10.542;2024-01-30T00:53:26;4.61;90.69
64961;SHT31;51487;52.266;10.542;2024-01-30T00:55:52;4.61;90.67
64961;SHT31;51487;52.266;10.542;2024-01-30T00:58:17;4.61;90.59
64961;SHT31;51487;52.266;10.542;2024-01-30T01:00:44;4.60;91.06
64961;SHT31;51487;52.266;10.542;2024-01-30T01:03:10;4.60;90.80
64961;SHT31;51487;52.266;10.542;2024-01-30T01:05:39;4.57;90.58
64961;SHT31;51487;52.266;10.542;2024-01-30T01:08:05;4.52;90.81
64961;SHT31;51487;52.266;10.542;2024-01-30T01:10:32;4.58;90.60
64961;SHT31;51487;52.266;10.542;2024-01-30T01:12:58;4.57;90.44
64961;SHT31;51487;52.266;10.542;2024-01-30T01:15:23;4.61;90.43
64961;SHT31;51487;52.266;10.542;2024-01-30T01:17:49;4.64;90.01
64961;SHT31;51487;52.266;10.542;2024-01-30T01:20:14;4.57;89.84
64961;SHT31;51487;52.266;10.542;2024-01-30T01:22:40;4.48;89.66
64961;SHT31;51487;52.266;10.542;2024-01-30T01:25:07;4.34;90.03
64961;SHT31;51487;52.266;10.542;2024-01-30T01:27:33;4.27;90.31
64961;SHT31;51487;52.266;10.542;2024-01-30T01:30:00;4.30;90.66
64961;SHT31;51487;52.266;10.542;2024-01-30T01:32:25;4.33;90.75
64961;SHT31;51487;52.266;10.542;2024-01-30T01:34:51;4.34;91.00
64961;SHT31;51487;52.266;10.542;2024-01-30T01:37:17;4.36;91.23
64961;SHT31;51487;52.266;10.542;2024-01-30T01:39:42;4.44;91.23
64961;SHT31;51487;52.266;10.542;2024-01-30T01:42:08;4.45;91.69
64961;SHT31;51487;52.266;10.542;2024-01-30T01:44:33;4.50;91.56
64961;SHT31;51487;52.266;10.542;2024-01-30T01:46:59;4.57;91.58
64961;SHT31;51487;52.266;10.542;2024-01-30T01:49:27;4.65;91.69
64961;SHT31;51487;52.266;10.542;2024-01-30T01:51:55;4.67;91.71
64961;SHT31;51487;52.266;10.542;2024-01-30T01:54:26;4.67;91.58
64961;SHT31;51487;52.266;10.542;2024-01-30T01:56:53;4.68;91.54
64961;SHT31;51487;52.266;10.542;2024-01-30T01:59:20;4.65;91.36
64961;SHT31;51487;52.266;10.542;2024-01-30T02:01:46;4.57;91.38
64961;SHT31;51487;52.266;10.542;2024-01-30T02:04:15;4.52;91.14
64961;SHT31;51487;52.266;10.542;2024-01-30T02:06:41;4.52;90.85
64961;SHT31;51487;52.266;10.542;2024-01-30T02:09:08;4.38;90.82
64961;SHT31;51487;52.266;10.542;2024-01-30T02:11:34;4.36;90.86
64961;SHT31;51487;52.266;10.542;2024-01-30T02:14:04;4.40;90.82
64961;SHT31;51487;52.266;10.542;2024-01-30T02:16:31;4.30;90.76
64961;SHT31;51487;52.266;10.542;2024-01-30T02:18:56;4.27;90.91
64961;SHT31;51487;52.266;10.542;2024-01-30T02:21:22;4.09;91.31
64961;SHT31;51487;52.266;10.542;2024-01-30T02:23:49;4.07;91.48
64961;SHT31;51487;52.266;10.542;2024-01-30T02:26:15;4.06;91.54
64961;SHT31;51487;52.266;10.542;2024-01-30T02:28:41;4.03;91.77
64961;SHT31;51487;52.266;10.542;2024-01-30T02:31:07;4.06;91.84
64961;SHT31;51487;52.266;10.542;2024-01-30T02:33:32;4.13;91.85
64961;SHT31;51487;52.266;10.542;2024-01-30T02:35:58;4.18;91.79
64961;SHT31;51487;52.266;10.542;2024-01-30T02:38:23;4.18;91.71
64961;SHT31;51487;52.266;10.542;2024-01-30T02:40:49;4.20;91.79
64961;SHT31;51487;52.266;10.542;2024-01-30T02:43:16;4.16;91.79
64961;SHT31;51487;52.266;10.542;2024-01-30T02:45:42;4.17;91.67
64961;SHT31;51487;52.266;10.542;2024-01-30T02:48:08;4.13;91.90
64961;SHT31;51487;52.266;10.542;2024-01-30T02:50:33;4.16;92.31
64961;SHT31;51487;52.266;10.542;2024-01-30T02:52:59;4.24;92.05
64961;SHT31;51487;52.266;10.542;2024-01-30T02:55:25;4.13;91.99
64961;SHT31;51487;52.266;10.542;2024-01-30T02:57:50;4.16;92.12
64961;SHT31;51487;52.266;10.542;2024-01-30T03:00:16;4.11;92.17
64961;SHT31;51487;52.266;10.542;2024-01-30T03:02:41;4.24;92.66
64961;SHT31;51487;52.266;10.542;2024-01-30T03:05:08;4.27;92.49
64961;SHT31;51487;52.266;10.542;2024-01-30T03:07:33;4.37;92.04
64961;SHT31;51487;52.266;10.542;2024-01-30T03:09:59;4.34;91.97
64961;SHT31;51487;52.266;10.542;2024-01-30T03:12:25;4.41;91.98
64961;SHT31;51487;52.266;10.542;2024-01-30T03:14:50;4.38;92.01
64961;SHT31;51487;52.266;10.542;2024-01-30T03:17:16;4.37;92.04
64961;SHT31;51487;52.266;10.542;2024-01-30T03:19:41;4.40;91.97
64961;SHT31;51487;52.266;10.542;2024-01-30T03:22:07;4.37;91.72
64961;SHT31;51487;52.266;10.542;2024-01-30T03:24:33;4.36;91.81
64961;SHT31;51487;52.266;10.542;2024-01-30T03:26:58;4.38;91.56
64961;SHT31;51487;52.266;10.542;2024-01-30T03:29:24;4.38;91.23
64961;SHT31;51487;52.266;10.542;2024-01-30T03:31:49;4.31;91.21
64961;SHT31;51487;52.266;10.542;2024-01-30T03:34:15;4.36;91.17
64961;SHT31;51487;52.266;10.542;2024-01-30T03:36:41;4.33;91.01
64961;SHT31;51487;52.266;10.542;2024-01-30T03:39:06;4.21;91.26
64961;SHT31;51487;52.266;10.542;2024-01-30T03:41:32;4.17;91.41
64961;SHT31;51487;52.266;10.542;2024-01-30T03:43:58;4.17;91.36
64961;SHT31;51487;52.266;10.542;2024-01-30T03:46:24;4.10;91.45
64961;SHT31;51487;52.266;10.542;2024-01-30T03:48:50;4.13;91.58
64961;SHT31;51487;52.266;10.542;2024-01-30T03:51:15;4.11;91.54
64961;SHT31;51487;52.266;10.542;2024-01-30T03:53:42;4.06;91.42
64961;SHT31;51487;52.266;10.542;2024-01-30T03:56:09;4.03;91.51
64961;SHT31;51487;52.266;10.542;2024-01-30T03:58:35;4.04;91.53
64961;SHT31;51487;52.266;10.542;2024-01-30T04:01:00;4.03;91.66
64961;SHT31;51487;52.266;10.542;2024-01-30T04:03:26;4.02;91.67
64961;SHT31;51487;52.266;10.542;2024-01-30T04:05:53;4.04;91.50
64961;SHT31;51487;52.266;10.542;2024-01-30T04:08:19;4.14;91.49
64961;SHT31;51487;52.266;10.542;2024-01-30T04:10:44;4.10;91.39
64961;SHT31;51487;52.266;10.542;2024-01-30T04:13:10;4.14;91.40
64961;SHT31;51487;52.266;10.542;2024-01-30T04:15:36;4.16;91.42
64961;SHT31;51487;52.266;10.542;2024-01-30T04:18:02;4.09;91.56
64961;SHT31;51487;52.266;10.542;2024-01-30T04:20:28;4.06;91.76
64961;SHT31;51487;52.266;10.542;2024-01-30T04:22:54;4.09;91.56
64961;SHT31;51487;52.266;10.542;2024-01-30T04:25:19;4.06;91.58
64961;SHT31;51487;52.266;10.542;2024-01-30T04:27:46;4.06;91.67
64961;SHT31;51487;52.266;10.542;2024-01-30T04:30:11;4.14;91.68
64961;SHT31;51487;52.266;10.542;2024-01-30T04:32:37;4.13;91.75
64961;SHT31;51487;52.266;10.542;2024-01-30T04:35:03;4.14;91.81
64961;SHT31;51487;52.266;10.542;2024-01-30T04:37:29;4.18;92.12
64961;SHT31;51487;52.266;10.542;2024-01-30T04:39:55;4.25;91.97
64961;SHT31;51487;52.266;10.542;2024-01-30T04:42:20;4.33;92.14
64961;SHT31;51487;52.266;10.542;2024-01-30T04:44:46;4.27;91.98
64961;SHT31;51487;52.266;10.542;2024-01-30T04:47:11;4.36;92.00
64961;SHT31;51487;52.266;10.542;2024-01-30T04:49:40;4.41;91.97
64961;SHT31;51487;52.266;10.542;2024-01-30T04:52:07;4.45;91.62
64961;SHT31;51487;52.266;10.542;2024-01-30T04:54:34;4.44;91.74
64961;SHT31;51487;52.266;10.542;2024-01-30T04:57:00;4.55;91.60
64961;SHT31;51487;52.266;10.542;2024-01-30T04:59:26;4.55;91.41
64961;SHT31;51487;52.266;10.542;2024-01-30T05:01:52;4.52;91.42
64961;SHT31;51487;52.266;10.542;2024-01-30T05:04:17;4.54;91.49
64961;SHT31;51487;52.266;10.542;2024-01-30T05:06:43;4.51;91.53
64961;SHT31;51487;52.266;10.542;2024-01-30T05:09:08;4.47;91.66
64961;SHT31;51487;52.266;10.542;2024-01-30T05:11:41;4.47;91.49
64961;SHT31;51487;52.266;10.542;2024-01-30T05:14:07;4.52;91.70
64961;SHT31;51487;52.266;10.542;2024-01-30T05:16:34;4.54;91.77
64961;SHT31;51487;52.266;10.542;2024-01-30T05:19:00;4.61;91.79
64961;SHT31;51487;52.266;10.542;2024-01-30T05:21:25;4.67;91.87
64961;SHT31;51487;52.266;10.542;2024-01-30T05:23:51;4.69;91.92
64961;SHT31;51487;52.266;10.542;2024-01-30T05:26:17;4.75;91.54
64961;SHT31;51487;52.266;10.542;2024-01-30T05:28:43;4.79;91.42
64961;SHT31;51487;52.266;10.542;2024-01-30T05:31:11;4.82;91.17
64961;SHT31;51487;52.266;10.542;2024-01-30T05:33:37;4.81;90.86
64961;SHT31;51487;52.266;10.542;2024-01-30T05:36:03;4.85;90.96
64961;SHT31;51487;52.266;10.542;2024-01-30T05:38:29;4.76;90.82
64961;SHT31;51487;52.266;10.542;2024-01-30T05:40:56;4.76;90.75
64961;SHT31;51487;52.266;10.542;2024-01-30T05:43:23;4.71;90.88
64961;SHT31;51487;52.266;10.542;2024-01-30T05:45:49;4.60;90.72
64961;SHT31;51487;52.266;10.542;2024-01-30T05:48:15;4.57;90.88
64961;SHT31;51487;52.266;10.542;2024-01-30T05:50:41;4.54;90.96
64961;SHT31;51487;52.266;10.542;2024-01-30T05:53:06;4.54;91.08
64961;SHT31;51487;52.266;10.542;2024-01-30T05:55:33;4.52;91.26
64961;SHT31;51487;52.266;10.542;2024-01-30T05:57:59;4.57;91.24
64961;SHT31;51487;52.266;10.542;2024-01-30T06:00:25;4.67;91.25
64961;SHT31;51487;52.266;10.542;2024-01-30T06:02:53;4.61;90.94
64961;SHT31;51487;52.266;10.542;2024-01-30T06:05:19;4.57;91.03
64961;SHT31;51487;52.266;10.542;2024-01-30T06:07:45;4.51;91.14
64961;SHT31;51487;52.266;10.542;2024-01-30T06:10:10;4.47;90.94
64961;SHT31;51487;52.266;10.542;2024-01-30T06:12:37;4.40;91.07
64961;SHT31;51487;52.266;10.542;2024-01-30T06:15:04;4.45;91.05
64961;SHT31;51487;52.266;10.542;2024-01-30T06:17:29;4.38;91.18
64961;SHT31;51487;52.266;10.542;2024-01-30T06:19:55;4.29;91.45
64961;SHT31;51487;52.266;10.542;2024-01-30T06:22:21;4.25;92.01
64961;SHT31;51487;52.266;10.542;2024-01-30T06:24:46;4.30;91.83
64961;SHT31;51487;52.266;10.542;2024-01-30T06:27:14;4.34;91.54
64961;SHT31;51487;52.266;10.542;2024-01-30T06:29:42;4.27;91.67
64961;SHT31;51487;52.266;10.542;2024-01-30T06:32:10;4.20;91.87
64961;SHT31;51487;52.266;10.542;2024-01-30T06:34:35;4.29;91.81
64961;SHT31;51487;52.266;10.542;2024-01-30T06:37:01;4.29;91.85
64961;SHT31;51487;52.266;10.542;2024-01-30T06:39:27;4.33;91.86
64961;SHT31;51487;52.266;10.542;2024-01-30T06:41:52;4.34;91.84
64961;SHT31;51487;52.266;10.542;2024-01-30T06:44:18;4.36;91.68
64961;SHT31;51487;52.266;10.542;2024-01-30T06:46:43;4.38;91.58
64961;SHT31;51487;52.266;10.542;2024-01-30T06:49:09;4.25;91.34
64961;SHT31;51487;52.266;10.542;2024-01-30T06:51:34;4.18;91.61
64961;SHT31;51487;52.266;10.542;2024-01-30T06:54:00;4.16;91.55
64961;SHT31;51487;52.266;10.542;2024-01-30T06:56:26;4.10;92.08
64961;SHT31;51487;52.266;10.542;2024-01-30T06:58:52;4.03;92.23
64961;SHT31;51487;52.266;10.542;2024-01-30T07:01:17;4.00;92.51
64961;SHT31;51487;52.266;10.542;2024-01-30T07:03:43;4.03;92.59
64961;SHT31;51487;52.266;10.542;2024-01-30T07:06:09;4.11;92.70
64961;SHT31;51487;52.266;10.542;2024-01-30T07:08:38;4.20;93.05
64961;SHT31;51487;52.266;10.542;2024-01-30T07:11:06;4.27;92.77
64961;SHT31;51487;52.266;10.542;2024-01-30T07:13:34;4.33;92.87
64961;SHT31;51487;52.266;10.542;2024-01-30T07:16:00;4.41;92.71
64961;SHT31;51487;52.266;10.542;2024-01-30T07:18:25;4.41;92.48
64961;SHT31;51487;52.266;10.542;2024-01-30T07:20:51;4.55;92.51
64961;SHT31;51487;52.266;10.542;2024-01-30T07:23:16;4.67;92.41
64961;SHT31;51487;52.266;10.542;2024-01-30T07:25:44;4.72;92.12
64961;SHT31;51487;52.266;10.542;2024-01-30T07:28:11;4.65;91.51
64961;SHT31;51487;52.266;10.542;2024-01-30T07:30:38;4.68;90.81
64961;SHT31;51487;52.266;10.542;2024-01-30T07:33:04;4.55;90.77
64961;SHT31;51487;52.266;10.542;2024-01-30T07:35:30;4.60;90.48
64961;SHT31;51487;52.266;10.542;2024-01-30T07:37:55;4.55;90.49
64961;SHT31;51487;52.266;10.542;2024-01-30T07:40:22;4.45;90.47
64961;SHT31;51487;52.266;10.542;2024-01-30T07:42:48;4.38;90.67
64961;SHT31;51487;52.266;10.542;2024-01-30T07:45:13;4.37;90.90
64961;SHT31;51487;52.266;10.542;2024-01-30T07:47:39;4.33;91.04
64961;SHT31;51487;52.266;10.542;2024-01-30T07:50:05;4.36;91.16
64961;SHT31;51487;52.266;10.542;2024-01-30T07:52:31;4.37;91.25
64961;SHT31;51487;52.266;10.542;2024-01-30T07:54:57;4.50;91.23
64961;SHT31;51487;52.266;10.542;2024-01-30T07:57:23;4.55;91.44
64961;SHT31;51487;52.266;10.542;2024-01-30T07:59:48;4.62;91.69
64961;SHT31;51487;52.266;10.542;2024-01-30T08:02:14;4.76;91.68
64961;SHT31;51487;52.266;10.542;2024-01-30T08:04:40;4.88;91.67
64961;SHT31;51487;52.266;10.542;2024-01-30T08:07:05;5.02;91.44
64961;SHT31;51487;52.266;10.542;2024-01-30T08:09:31;5.15;91.09
64961;SHT31;51487;52.266;10.542;2024-01-30T08:11:57;5.20;90.64
64961;SHT31;51487;52.266;10.542;2024-01-30T08:14:23;5.26;90.58
64961;SHT31;51487;52.266;10.542;2024-01-30T08:16:48;5.27;90.38
64961;SHT31;51487;52.266;10.542;2024-01-30T08:19:15;5.31;90.15
64961;SHT31;51487;52.266;10.542;2024-01-30T08:21:41;5.36;90.00
64961;SHT31;51487;52.266;10.542;2024-01-30T08:24:07;5.37;89.89
64961;SHT31;51487;52.266;10.542;2024-01-30T08:26:33;5.39;89.73
64961;SHT31;51487;52.266;10.542;2024-01-30T08:28:59;5.37;89.64
64961;SHT31;51487;52.266;10.542;2024-01-30T08:31:25;5.37;89.64
64961;SHT31;51487;52.266;10.542;2024-01-30T08:33:51;5.37;89.71
64961;SHT31;51487;52.266;10.542;2024-01-30T08:36:17;5.40;89.79
64961;SHT31;51487;52.266;10.542;2024-01-30T08:38:46;5.46;89.81
64961;SHT31;51487;52.266;10.542;2024-01-30T08:41:12;5.64;89.98
64961;SHT31;51487;52.266;10.542;2024-01-30T08:43:37;5.79;90.03
64961;SHT31;51487;52.266;10.542;2024-01-30T08:46:03;11.23;99.99
64961;SHT31;51487;52.266;10.542;2024-01-30T08:48:29;13.65;99.99
64961;SHT31;51487;52.266;10.542;2024-01-30T08:50:55;12.76;99.99
64961;SHT31;51487;52.266;10.542;2024-01-30T08:53:23;11.11;97.30
64961;SHT31;51487;52.266;10.542;2024-01-30T08:55:49;10.10;95.89
64961;SHT31;51487;52.266;10.542;2024-01-30T08:58:16;9.36;94.92
64961;SHT31;51487;52.266;10.542;2024-01-30T09:00:43;8.87;95.39
64961;SHT31;51487;52.266;10.542;2024-01-30T09:03:09;8.45;94.26
64961;SHT31;51487;52.266;10.542;2024-01-30T09:05:34;7.95;91.03
64961;SHT31;51487;52.266;10.542;2024-01-30T09:08:00;7.76;90.56
64961;SHT31;51487;52.266;10.542;2024-01-30T09:10:25;7.81;92.83
64961;SHT31;51487;52.266;10.542;2024-01-30T09:12:52;7.76;90.88
64961;SHT31;51487;52.266;10.542;2024-01-30T09:15:18;7.76;89.87
64961;SHT31;51487;52.266;10.542;2024-01-30T09:17:44;7.78;89.51
64961;SHT31;51487;52.266;10.542;2024-01-30T09:20:10;7.97;89.76
64961;SHT31;51487;52.266;10.542;2024-01-30T09:22:36;8.05;88.48
64961;SHT31;51487;52.266;10.542;2024-01-30T09:25:01;8.11;87.34
64961;SHT31;51487;52.266;10.542;2024-01-30T09:27:27;8.22;87.88
64961;SHT31;51487;52.266;10.542;2024-01-30T09:29:53;8.26;86.65
64961;SHT31;51487;52.266;10.542;2024-01-30T09:32:18;8.31;87.32
64961;SHT31;51487;52.266;10.542;2024-01-30T09:34:44;8.29;86.56
64961;SHT31;51487;52.266;10.542;2024-01-30T09:37:09;8.26;85.77
64961;SHT31;51487;52.266;10.542;2024-01-30T09:39:35;8.35;85.83
64961;SHT31;51487;52.266;10.542;2024-01-30T09:42:35;8.41;85.60
64961;SHT31;51487;52.266;10.542;2024-01-30T09:45:03;8.41;85.17
64961;SHT31;51487;52.266;10.542;2024-01-30T09:47:32;8.48;84.91
64961;SHT31;51487;52.266;10.542;2024-01-30T09:50:01;8.53;84.80
64961;SHT31;51487;52.266;10.542;2024-01-30T09:52:28;8.60;84.42
64961;SHT31;51487;52.266;10.542;2024-01-30T09:54:53;8.67;84.43
64961;SHT31;51487;52.266;10.542;2024-01-30T09:57:19;8.76;84.44
64961;SHT31;51487;52.266;10.542;2024-01-30T09:59:46;8.76;84.58
64961;SHT31;51487;52.266;10.542;2024-01-30T10:02:12;8.83;84.41
64961;SHT31;51487;52.266;10.542;2024-01-30T10:04:38;8.86;84.46
64961;SHT31;51487;52.266;10.542;2024-01-30T10:07:03;8.88;84.60
64961;SHT31;51487;52.266;10.542;2024-01-30T10:09:32;8.94;84.83
64961;SHT31;51487;52.266;10.542;2024-01-30T10:12:02;9.07;84.50
64961;SHT31;51487;52.266;10.542;2024-01-30T10:14:29;9.15;84.47
64961;SHT31;51487;52.266;10.542;2024-01-30T10:16:55;9.27;83.96
64961;SHT31;51487;52.266;10.542;2024-01-30T10:19:22;9.36;83.56
64961;SHT31;51487;52.266;10.542;2024-01-30T10:21:48;9.42;83.42
64961;SHT31;51487;52.266;10.542;2024-01-30T10:24:13;9.44;83.24
64961;SHT31;51487;52.266;10.542;2024-01-30T10:26:39;9.51;82.99
64961;SHT31;51487;52.266;10.542;2024-01-30T10:29:05;9.55;82.98
64961;SHT31;51487;52.266;10.542;2024-01-30T10:31:31;9.54;82.94
64961;SHT31;51487;52.266;10.542;2024-01-30T10:33:57;9.49;82.90
64961;SHT31;51487;52.266;10.542;2024-01-30T10:36:28;9.54;82.81
64961;SHT31;51487;52.266;10.542;2024-01-30T10:38:59;9.58;83.11
64961;SHT31;51487;52.266;10.542;2024-01-30T10:41:32;9.58;82.97
64961;SHT31;51487;52.266;10.542;2024-01-30T10:44:09;9.66;82.87
64961;SHT31;51487;52.266;10.542;2024-01-30T10:46:38;9.69;82.54
64961;SHT31;51487;52.266;10.542;2024-01-30T10:49:05;9.81;82.46
64961;SHT31;51487;52.266;10.542;2024-01-30T10:51:32;9.82;82.47
64961;SHT31;51487;52.266;10.542;2024-01-30T10:53:57;9.99;82.15
64961;SHT31;51487;52.266;10.542;2024-01-30T10:56:24;10.06;82.15
64961;SHT31;51487;52.266;10.542;2024-01-30T10:58:52;10.09;82.04
64961;SHT31;51487;52.266;10.542;2024-01-30T11:01:21;10.14;81.75
64961;SHT31;51487;52.266;10.542;2024-01-30T11:03:50;10.14;81.44
64961;SHT31;51487;52.266;10.542;2024-01-30T11:06:16;10.25;81.38
64961;SHT31;51487;52.266;10.542;2024-01-30T11:08:45;10.36;81.77
64961;SHT31;51487;52.266;10.542;2024-01-30T11:11:16;10.23;81.83
64961;SHT31;51487;52.266;10.542;2024-01-30T11:13:41;10.38;81.21
64961;SHT31;51487;52.266;10.542;2024-01-30T11:16:11;10.45;80.91
64961;SHT31;51487;52.266;10.542;2024-01-30T11:18:36;10.50;81.11
64961;SHT31;51487;52.266;10.542;2024-01-30T11:21:05;10.48;81.10
64961;SHT31;51487;52.266;10.542;2024-01-30T11:23:33;10.51;81.04
64961;SHT31;51487;52.266;10.542;2024-01-30T11:26:00;10.55;81.14
64961;SHT31;51487;52.266;10.542;2024-01-30T11:28:33;10.48;81.03
64961;SHT31;51487;52.266;10.542;2024-01-30T11:31:06;10.58;80.71
64961;SHT31;51487;52.266;10.542;2024-01-30T11:33:33;10.74;80.24
64961;SHT31;51487;52.266;10.542;2024-01-30T11:36:01;10.79;80.03
64961;SHT31;51487;52.266;10.542;2024-01-30T11:38:28;10.92;79.94
64961;SHT31;51487;52.266;10.542;2024-01-30T11:40:57;10.79;80.07
64961;SHT31;51487;52.266;10.542;2024-01-30T11:43:23;10.93;79.84
64961;SHT31;51487;52.266;10.542;2024-01-30T11:45:49;11.01;79.32
64961;SHT31;51487;52.266;10.542;2024-01-30T11:48:15;11.01;79.33
64961;SHT31;51487;52.266;10.542;2024-01-30T11:50:42;11.06;79.19
64961;SHT31;51487;52.266;10.542;2024-01-30T11:53:10;11.13;79.35
64961;SHT31;51487;52.266;10.542;2024-01-30T11:55:35;11.13;79.24
64961;SHT31;51487;52.266;10.542;2024-01-30T11:58:03;11.26;79.30
64961;SHT31;51487;52.266;10.542;2024-01-30T12:00:32;11.26;79.49
64961;SHT31;51487;52.266;10.542;2024-01-30T12:02:58;11.34;79.11
64961;SHT31;51487;52.266;10.542;2024-01-30T12:05:27;11.37;78.88
64961;SHT31;51487;52.266;10.542;2024-01-30T12:07:53;11.27;78.90
64961;SHT31;51487;52.266;10.542;2024-01-30T12:10:19;11.24;78.83
64961;SHT31;51487;52.266;10.542;2024-01-30T12:12:47;11.24;78.22
64961;SHT31;51487;52.266;10.542;2024-01-30T12:15:15;11.24;78.50
64961;SHT31;51487;52.266;10.542;2024-01-30T12:17:41;11.30;78.10
64961;SHT31;51487;52.266;10.542;2024-01-30T12:22:37;11.49;77.28
64961;SHT31;51487;52.266;10.542;2024-01-30T12:25:12;11.33;77.70
64961;SHT31;51487;52.266;10.542;2024-01-30T12:27:41;11.41;77.36
64961;SHT31;51487;52.266;10.542;2024-01-30T12:30:09;11.41;77.63
64961;SHT31;51487;52.266;10.542;2024-01-30T12:32:46;11.46;77.52
64961;SHT31;51487;52.266;10.542;2024-01-30T12:35:17;11.53;77.47
64961;SHT31;51487;52.266;10.542;2024-01-30T12:37:45;11.49;77.58
64961;SHT31;51487;52.266;10.542;2024-01-30T12:40:14;11.56;77.58
64961;SHT31;51487;52.266;10.542;2024-01-30T12:42:43;11.57;77.23
64961;SHT31;51487;52.266;10.542;2024-01-30T12:45:14;11.51;77.30
64961;SHT31;51487;52.266;10.542;2024-01-30T12:47:48;11.49;77.65
64961;SHT31;51487;52.266;10.542;2024-01-30T12:50:17;11.44;77.68
64961;SHT31;51487;52.266;10.542;2024-01-30T12:52:43;11.37;77.86
64961;SHT31;51487;52.266;10.542;2024-01-30T12:55:09;11.44;77.86
64961;SHT31;51487;52.266;10.542;2024-01-30T12:57:34;11.47;77.84
64961;SHT31;51487;52.266;10.542;2024-01-30T13:00:00;11.41;78.01
64961;SHT31;51487;52.266;10.542;2024-01-30T13:02:27;11.54;77.34
64961;SHT31;51487;52.266;10.542;2024-01-30T13:05:00;11.49;77.26
64961;SHT31;51487;52.266;10.542;2024-01-30T13:07:25;11.49;77.49
64961;SHT31;51487;52.266;10.542;2024-01-30T13:09:51;11.50;77.42
64961;SHT31;51487;52.266;10.542;2024-01-30T13:12:16;11.53;77.49
64961;SHT31;51487;52.266;10.542;2024-01-30T13:14:42;11.47;77.63
64961;SHT31;51487;52.266;10.542;2024-01-30T13:17:08;11.53;77.51
64961;SHT31;51487;52.266;10.542;2024-01-30T13:19:34;11.56;77.96
64961;SHT31;51487;52.266;10.542;2024-01-30T13:21:59;11.46;78.03
64961;SHT31;51487;52.266;10.542;2024-01-30T13:24:25;11.51;77.84
64961;SHT31;51487;52.266;10.542;2024-01-30T13:26:50;11.54;78.25
64961;SHT31;51487;52.266;10.542;2024-01-30T13:29:16;11.47;77.92
64961;SHT31;51487;52.266;10.542;2024-01-30T13:31:42;11.47;77.91
64961;SHT31;51487;52.266;10.542;2024-01-30T13:34:09;11.57;77.79
64961;SHT31;51487;52.266;10.542;2024-01-30T13:36:35;11.63;77.45
64961;SHT31;51487;52.266;10.542;2024-01-30T13:39:00;11.47;77.92
64961;SHT31;51487;52.266;10.542;2024-01-30T13:41:26;11.34;78.49
64961;SHT31;51487;52.266;10.542;2024-01-30T13:43:51;11.43;78.37
64961;SHT31;51487;52.266;10.542;2024-01-30T13:46:17;11.49;78.30
64961;SHT31;51487;52.266;10.542;2024-01-30T13:48:43;11.53;78.63
64961;SHT31;51487;52.266;10.542;2024-01-30T13:51:08;11.50;78.17
64961;SHT31;51487;52.266;10.542;2024-01-30T13:53:34;11.46;78.30
64961;SHT31;51487;52.266;10.542;2024-01-30T13:56:00;11.47;78.55
64961;SHT31;51487;52.266;10.542;2024-01-30T13:58:25;11.54;78.11
64961;SHT31;51487;52.266;10.542;2024-01-30T14:00:51;11.53;78.32
64961;SHT31;51487;52.266;10.542;2024-01-30T14:03:16;11.51;78.45
64961;SHT31;51487;52.266;10.542;2024-01-30T14:05:42;11.41;78.89
64961;SHT31;51487;52.266;10.542;2024-01-30T14:08:09;11.50;78.60
64961;SHT31;51487;52.266;10.542;2024-01-30T14:10:35;11.50;78.63
64961;SHT31;51487;52.266;10.542;2024-01-30T14:13:00;11.49;78.98
64961;SHT31;51487;52.266;10.542;2024-01-30T14:15:26;11.47;79.17
64961;SHT31;51487;52.266;10.542;2024-01-30T14:17:51;11.59;78.35
64961;SHT31;51487;52.266;10.542;2024-01-30T14:20:17;11.40;79.01
64961;SHT31;51487;52.266;10.542;2024-01-30T14:22:43;11.49;78.95
64961;SHT31;51487;52.266;10.542;2024-01-30T14:25:09;11.40;79.01
64961;SHT31;51487;52.266;10.542;2024-01-30T14:27:35;11.29;79.19
64961;SHT31;51487;52.266;10.542;2024-01-30T14:30:01;11.23;79.36
64961;SHT31;51487;52.266;10.542;2024-01-30T14:32:28;11.09;79.59
64961;SHT31;51487;52.266;10.542;2024-01-30T14:34:54;10.92;80.24
64961;SHT31;51487;52.266;10.542;2024-01-30T14:37:21;10.92;79.86
64961;SHT31;51487;52.266;10.542;2024-01-30T14:39:47;10.93;80.09
64961;SHT31;51487;52.266;10.542;2024-01-30T14:42:15;10.95;79.69
64961;SHT31;51487;52.266;10.542;2024-01-30T14:44:42;11.06;79.61
64961;SHT31;51487;52.266;10.542;2024-01-30T14:47:11;10.99;79.97
64961;SHT31;51487;52.266;10.542;2024-01-30T14:49:38;10.89;80.22
64961;SHT31;51487;52.266;10.542;2024-01-30T14:52:04;10.95;80.08
64961;SHT31;51487;52.266;10.542;2024-01-30T14:54:30;10.88;80.33
64961;SHT31;51487;52.266;10.542;2024-01-30T14:56:55;10.79;80.68
64961;SHT31;51487;52.266;10.542;2024-01-30T14:59:21;10.78;80.63
64961;SHT31;51487;52.266;10.542;2024-01-30T15:01:47;10.82;80.54
64961;SHT31;51487;52.266;10.542;2024-01-30T15:04:14;10.86;80.65
64961;SHT31;51487;52.266;10.542;2024-01-30T15:06:40;10.71;80.95
64961;SHT31;51487;52.266;10.542;2024-01-30T15:09:11;10.69;81.10
64961;SHT31;51487;52.266;10.542;2024-01-30T15:11:43;10.64;81.27
64961;SHT31;51487;52.266;10.542;2024-01-30T15:14:09;10.68;81.15
64961;SHT31;51487;52.266;10.542;2024-01-30T15:16:35;10.57;81.44
64961;SHT31;51487;52.266;10.542;2024-01-30T15:19:02;10.64;81.38
64961;SHT31;51487;52.266;10.542;2024-01-30T15:21:28;10.62;81.55
64961;SHT31;51487;52.266;10.542;2024-01-30T15:23:54;10.61;81.70
64961;SHT31;51487;52.266;10.542;2024-01-30T15:26:20;10.48;81.74